sensor_id;sensor_type;location;lat;lon;timestamp;P1;durP1;ratioP1;P2;durP2;ratioP2
56770;SDS011;42641;59.794;17.616;2023-02-08T00:02:26;13.53;;;3.43;;
56770;SDS011;42641;59.794;17.616;2023-02-08T00:04:52;17.90;;;4.03;;
56770;SDS011;42641;59.794;17.616;2023-02-08T00:07:18;11.27;;;3.67;;
56770;SDS011;42641;59.794;17.616;2023-02-08T00:09:45;15.87;;;3.63;;
56770;SDS011;42641;59.794;17.616;2023-02-08T00:12:11;12.60;;;3.63;;
56770;SDS011;42641;59.794;17.616;2023-02-08T00:14:38;22.53;;;4.13;;
56770;SDS011;42641;59.794;17.616;2023-02-08T00:17:04;14.90;;;3.57;;
56770;SDS011;42641;59.794;17.616;2023-02-08T00:19:30;15.17;;;4.27;;
56770;SDS011;42641;59.794;17.616;2023-02-08T00:21:57;13.63;;;3.73;;
56770;SDS011;42641;59.794;17.616;2023-02-08T00:24:23;15.83;;;4.00;;
56770;SDS011;42641;59.794;17.616;2023-02-08T00:26:49;16.50;;;3.63;;
56770;SDS011;42641;59.794;17.616;2023-02-08T00:29:16;15.43;;;3.60;;
56770;SDS011;42641;59.794;17.616;2023-02-08T00:31:42;12.30;;;3.30;;
56770;SDS011;42641;59.794;17.616;2023-02-08T00:34:09;16.30;;;4.43;;
56770;SDS011;42641;59.794;17.616;2023-02-08T00:36:35;15.03;;;3.93;;
56770;SDS011;42641;59.794;17.616;2023-02-08T00:39:02;12.40;;;3.73;;
56770;SDS011;42641;59.794;17.616;2023-02-08T00:41:28;16.23;;;4.33;;
56770;SDS011;42641;59.794;17.616;2023-02-08T00:43:54;10.73;;;3.60;;
56770;SDS011;42641;59.794;17.616;2023-02-08T00:46:21;21.17;;;4.50;;
56770;SDS011;42641;59.794;17.616;2023-02-08T00:48:48;15.40;;;3.87;;
56770;SDS011;42641;59.794;17.616;2023-02-08T00:51:15;12.20;;;4.10;;
56770;SDS011;42641;59.794;17.616;2023-02-08T00:53:42;10.60;;;3.30;;
56770;SDS011;42641;59.794;17.616;2023-02-08T00:56:10;17.67;;;3.63;;
56770;SDS011;42641;59.794;17.616;2023-02-08T00:58:38;14.70;;;3.97;;
56770;SDS011;42641;59.794;17.616;2023-02-08T01:01:05;14.93;;;4.07;;
56770;SDS011;42641;59.794;17.616;2023-02-08T01:03:32;9.13;;;3.20;;
56770;SDS011;42641;59.794;17.616;2023-02-08T01:06:00;15.87;;;3.73;;
56770;SDS011;42641;59.794;17.616;2023-02-08T01:08:28;16.20;;;3.90;;
56770;SDS011;42641;59.794;17.616;2023-02-08T01:11:06;12.30;;;4.03;;
56770;SDS011;42641;59.794;17.616;2023-02-08T01:13:38;15.20;;;3.90;;
56770;SDS011;42641;59.794;17.616;2023-02-08T01:16:11;16.73;;;3.80;;
56770;SDS011;42641;59.794;17.616;2023-02-08T01:18:41;16.17;;;3.97;;
56770;SDS011;42641;59.794;17.616;2023-02-08T01:21:10;16.13;;;4.07;;
56770;SDS011;42641;59.794;17.616;2023-02-08T01:23:42;16.20;;;3.63;;
56770;SDS011;42641;59.794;17.616;2023-02-08T01:26:09;11.50;;;4.20;;
56770;SDS011;42641;59.794;17.616;2023-02-08T01:28:37;15.30;;;4.23;;
56770;SDS011;42641;59.794;17.616;2023-02-08T01:31:05;12.60;;;3.97;;
56770;SDS011;42641;59.794;17.616;2023-02-08T01:33:36;15.37;;;3.63;;
56770;SDS011;42641;59.794;17.616;2023-02-08T01:36:03;23.43;;;4.20;;
56770;SDS011;42641;59.794;17.616;2023-02-08T01:38:30;19.30;;;3.63;;
56770;SDS011;42641;59.794;17.616;2023-02-08T01:40:58;15.27;;;4.00;;
56770;SDS011;42641;59.794;17.616;2023-02-08T01:43:26;17.63;;;3.70;;
56770;SDS011;42641;59.794;17.616;2023-02-08T01:45:58;21.13;;;4.60;;
56770;SDS011;42641;59.794;17.616;2023-02-08T01:51:09;20.33;;;3.90;;
56770;SDS011;42641;59.794;17.616;2023-02-08T01:53:41;20.53;;;4.00;;
56770;SDS011;42641;59.794;17.616;2023-02-08T01:56:10;11.37;;;3.40;;
56770;SDS011;42641;59.794;17.616;2023-02-08T01:58:41;16.07;;;4.53;;
56770;SDS011;42641;59.794;17.616;2023-02-08T02:01:14;14.07;;;3.50;;
56770;SDS011;42641;59.794;17.616;2023-02-08T02:03:41;15.47;;;4.07;;
56770;SDS011;42641;59.794;17.616;2023-02-08T02:06:15;15.33;;;3.87;;
56770;SDS011;42641;59.794;17.616;2023-02-08T02:08:57;10.50;;;3.53;;
56770;SDS011;42641;59.794;17.616;2023-02-08T02:11:30;14.60;;;3.80;;
56770;SDS011;42641;59.794;17.616;2023-02-08T02:13:56;12.23;;;3.97;;
56770;SDS011;42641;59.794;17.616;2023-02-08T02:16:25;15.47;;;3.57;;
56770;SDS011;42641;59.794;17.616;2023-02-08T02:18:51;12.17;;;3.70;;
56770;SDS011;42641;59.794;17.616;2023-02-08T02:24:31;17.23;;;4.10;;
56770;SDS011;42641;59.794;17.616;2023-02-08T02:27:31;18.13;;;4.37;;
56770;SDS011;42641;59.794;17.616;2023-02-08T02:36:34;15.43;;;3.60;;
56770;SDS011;42641;59.794;17.616;2023-02-08T02:41:36;16.30;;;3.73;;
56770;SDS011;42641;59.794;17.616;2023-02-08T02:44:30;12.13;;;4.13;;
56770;SDS011;42641;59.794;17.616;2023-02-08T02:53:00;14.97;;;3.90;;
56770;SDS011;42641;59.794;17.616;2023-02-08T02:55:33;14.60;;;4.13;;
56770;SDS011;42641;59.794;17.616;2023-02-08T02:58:04;13.93;;;3.20;;
56770;SDS011;42641;59.794;17.616;2023-02-08T03:00:32;11.40;;;3.77;;
56770;SDS011;42641;59.794;17.616;2023-02-08T03:02:58;13.67;;;4.47;;
56770;SDS011;42641;59.794;17.616;2023-02-08T03:05:25;20.50;;;4.40;;
56770;SDS011;42641;59.794;17.616;2023-02-08T03:08:30;18.77;;;3.90;;
56770;SDS011;42641;59.794;17.616;2023-02-08T03:11:08;19.90;;;4.33;;
56770;SDS011;42641;59.794;17.616;2023-02-08T03:13:45;18.83;;;4.27;;
56770;SDS011;42641;59.794;17.616;2023-02-08T03:22:26;10.23;;;4.00;;
56770;SDS011;42641;59.794;17.616;2023-02-08T03:25:05;19.83;;;4.40;;
56770;SDS011;42641;59.794;17.616;2023-02-08T03:30:30;15.03;;;4.43;;
56770;SDS011;42641;59.794;17.616;2023-02-08T03:33:05;19.17;;;4.10;;
56770;SDS011;42641;59.794;17.616;2023-02-08T03:35:46;18.10;;;4.67;;
56770;SDS011;42641;59.794;17.616;2023-02-08T03:38:29;14.10;;;4.13;;
56770;SDS011;42641;59.794;17.616;2023-02-08T03:41:00;12.83;;;3.87;;
56770;SDS011;42641;59.794;17.616;2023-02-08T03:43:33;15.00;;;4.13;;
56770;SDS011;42641;59.794;17.616;2023-02-08T03:46:23;18.67;;;4.83;;
56770;SDS011;42641;59.794;17.616;2023-02-08T03:48:53;15.53;;;4.40;;
56770;SDS011;42641;59.794;17.616;2023-02-08T03:51:24;12.97;;;3.63;;
56770;SDS011;42641;59.794;17.616;2023-02-08T03:53:53;15.40;;;4.13;;
56770;SDS011;42641;59.794;17.616;2023-02-08T03:56:27;14.97;;;4.10;;
56770;SDS011;42641;59.794;17.616;2023-02-08T03:59:01;15.20;;;4.40;;
56770;SDS011;42641;59.794;17.616;2023-02-08T04:01:32;13.47;;;4.43;;
56770;SDS011;42641;59.794;17.616;2023-02-08T04:04:08;13.43;;;4.37;;
56770;SDS011;42641;59.794;17.616;2023-02-08T04:06:36;15.30;;;4.47;;
56770;SDS011;42641;59.794;17.616;2023-02-08T04:09:04;13.40;;;3.77;;
56770;SDS011;42641;59.794;17.616;2023-02-08T04:11:31;11.77;;;3.47;;
56770;SDS011;42641;59.794;17.616;2023-02-08T04:13:57;16.57;;;3.80;;
56770;SDS011;42641;59.794;17.616;2023-02-08T04:16:23;16.77;;;4.60;;
56770;SDS011;42641;59.794;17.616;2023-02-08T04:18:50;16.07;;;4.13;;
56770;SDS011;42641;59.794;17.616;2023-02-08T04:21:16;11.93;;;4.13;;
56770;SDS011;42641;59.794;17.616;2023-02-08T04:23:42;13.90;;;3.77;;
56770;SDS011;42641;59.794;17.616;2023-02-08T04:26:08;16.60;;;4.33;;
56770;SDS011;42641;59.794;17.616;2023-02-08T04:28:35;14.33;;;4.93;;
56770;SDS011;42641;59.794;17.616;2023-02-08T04:31:01;14.20;;;4.00;;
56770;SDS011;42641;59.794;17.616;2023-02-08T04:33:28;12.37;;;3.90;;
56770;SDS011;42641;59.794;17.616;2023-02-08T04:35:55;12.60;;;3.53;;
56770;SDS011;42641;59.794;17.616;2023-02-08T04:38:21;13.63;;;3.83;;
56770;SDS011;42641;59.794;17.616;2023-02-08T04:40:47;11.37;;;4.20;;
56770;SDS011;42641;59.794;17.616;2023-02-08T04:43:14;14.20;;;3.80;;
56770;SDS011;42641;59.794;17.616;2023-02-08T04:45:41;14.00;;;3.70;;
56770;SDS011;42641;59.794;17.616;2023-02-08T04:48:07;12.17;;;3.83;;
56770;SDS011;42641;59.794;17.616;2023-02-08T04:50:34;12.83;;;3.80;;
56770;SDS011;42641;59.794;17.616;2023-02-08T04:53:00;8.37;;;3.77;;
56770;SDS011;42641;59.794;17.616;2023-02-08T04:55:27;13.10;;;3.80;;
56770;SDS011;42641;59.794;17.616;2023-02-08T04:57:53;14.67;;;3.90;;
56770;SDS011;42641;59.794;17.616;2023-02-08T05:00:19;13.07;;;3.80;;
56770;SDS011;42641;59.794;17.616;2023-02-08T05:02:46;10.07;;;3.60;;
56770;SDS011;42641;59.794;17.616;2023-02-08T05:05:12;11.57;;;3.63;;
56770;SDS011;42641;59.794;17.616;2023-02-08T05:07:38;9.37;;;3.97;;
56770;SDS011;42641;59.794;17.616;2023-02-08T05:10:05;9.57;;;3.40;;
56770;SDS011;42641;59.794;17.616;2023-02-08T05:12:32;10.63;;;3.50;;
56770;SDS011;42641;59.794;17.616;2023-02-08T05:14:58;10.67;;;3.37;;
56770;SDS011;42641;59.794;17.616;2023-02-08T05:17:24;11.07;;;3.60;;
56770;SDS011;42641;59.794;17.616;2023-02-08T05:19:51;10.33;;;3.67;;
56770;SDS011;42641;59.794;17.616;2023-02-08T05:22:17;13.23;;;3.77;;
56770;SDS011;42641;59.794;17.616;2023-02-08T05:24:43;8.90;;;3.40;;
56770;SDS011;42641;59.794;17.616;2023-02-08T05:27:10;14.20;;;3.47;;
56770;SDS011;42641;59.794;17.616;2023-02-08T05:29:36;10.47;;;3.07;;
56770;SDS011;42641;59.794;17.616;2023-02-08T05:32:03;10.87;;;2.90;;
56770;SDS011;42641;59.794;17.616;2023-02-08T05:34:29;8.40;;;3.00;;
56770;SDS011;42641;59.794;17.616;2023-02-08T05:36:55;8.87;;;3.07;;
56770;SDS011;42641;59.794;17.616;2023-02-08T05:39:22;13.17;;;3.27;;
56770;SDS011;42641;59.794;17.616;2023-02-08T05:41:48;8.87;;;3.30;;
56770;SDS011;42641;59.794;17.616;2023-02-08T05:44:15;9.53;;;3.07;;
56770;SDS011;42641;59.794;17.616;2023-02-08T05:46:41;12.43;;;3.00;;
56770;SDS011;42641;59.794;17.616;2023-02-08T05:49:07;9.23;;;3.10;;
56770;SDS011;42641;59.794;17.616;2023-02-08T05:51:34;8.33;;;2.77;;
56770;SDS011;42641;59.794;17.616;2023-02-08T05:54:00;7.27;;;2.53;;
56770;SDS011;42641;59.794;17.616;2023-02-08T05:56:26;8.20;;;3.30;;
56770;SDS011;42641;59.794;17.616;2023-02-08T05:58:53;9.33;;;3.30;;
56770;SDS011;42641;59.794;17.616;2023-02-08T06:01:20;12.10;;;3.50;;
56770;SDS011;42641;59.794;17.616;2023-02-08T06:03:46;9.00;;;3.80;;
56770;SDS011;42641;59.794;17.616;2023-02-08T06:06:13;10.20;;;3.60;;
56770;SDS011;42641;59.794;17.616;2023-02-08T06:08:39;12.47;;;3.83;;
56770;SDS011;42641;59.794;17.616;2023-02-08T06:11:06;12.23;;;3.97;;
56770;SDS011;42641;59.794;17.616;2023-02-08T06:13:32;10.30;;;3.77;;
56770;SDS011;42641;59.794;17.616;2023-02-08T06:15:59;13.07;;;4.30;;
56770;SDS011;42641;59.794;17.616;2023-02-08T06:18:25;9.37;;;3.07;;
56770;SDS011;42641;59.794;17.616;2023-02-08T06:20:54;11.60;;;3.70;;
56770;SDS011;42641;59.794;17.616;2023-02-08T06:23:21;11.43;;;3.70;;
56770;SDS011;42641;59.794;17.616;2023-02-08T06:25:48;11.93;;;3.40;;
56770;SDS011;42641;59.794;17.616;2023-02-08T06:28:14;13.40;;;4.57;;
56770;SDS011;42641;59.794;17.616;2023-02-08T06:30:41;10.60;;;4.13;;
56770;SDS011;42641;59.794;17.616;2023-02-08T06:33:08;11.87;;;3.47;;
56770;SDS011;42641;59.794;17.616;2023-02-08T06:35:34;8.37;;;3.80;;
56770;SDS011;42641;59.794;17.616;2023-02-08T06:38:01;14.30;;;4.37;;
56770;SDS011;42641;59.794;17.616;2023-02-08T06:40:27;14.13;;;4.33;;
56770;SDS011;42641;59.794;17.616;2023-02-08T06:42:53;8.10;;;3.23;;
56770;SDS011;42641;59.794;17.616;2023-02-08T06:45:20;7.27;;;3.33;;
56770;SDS011;42641;59.794;17.616;2023-02-08T06:47:46;8.07;;;3.63;;
56770;SDS011;42641;59.794;17.616;2023-02-08T06:50:12;6.70;;;3.57;;
56770;SDS011;42641;59.794;17.616;2023-02-08T06:52:40;8.83;;;3.30;;
56770;SDS011;42641;59.794;17.616;2023-02-08T06:55:06;8.33;;;3.30;;
56770;SDS011;42641;59.794;17.616;2023-02-08T06:57:32;9.47;;;3.17;;
56770;SDS011;42641;59.794;17.616;2023-02-08T06:59:59;7.80;;;3.17;;
56770;SDS011;42641;59.794;17.616;2023-02-08T07:02:25;5.63;;;3.67;;
56770;SDS011;42641;59.794;17.616;2023-02-08T07:04:52;8.00;;;3.77;;
56770;SDS011;42641;59.794;17.616;2023-02-08T07:07:19;5.80;;;2.83;;
56770;SDS011;42641;59.794;17.616;2023-02-08T07:09:45;8.93;;;3.10;;
56770;SDS011;42641;59.794;17.616;2023-02-08T07:12:11;11.00;;;3.33;;
56770;SDS011;42641;59.794;17.616;2023-02-08T07:14:39;7.97;;;3.23;;
56770;SDS011;42641;59.794;17.616;2023-02-08T07:17:07;8.87;;;3.20;;
56770;SDS011;42641;59.794;17.616;2023-02-08T07:19:34;8.53;;;3.60;;
56770;SDS011;42641;59.794;17.616;2023-02-08T07:22:00;7.10;;;3.33;;
56770;SDS011;42641;59.794;17.616;2023-02-08T07:24:33;7.97;;;3.37;;
56770;SDS011;42641;59.794;17.616;2023-02-08T07:27:00;5.27;;;3.50;;
56770;SDS011;42641;59.794;17.616;2023-02-08T07:29:28;6.83;;;3.10;;
56770;SDS011;42641;59.794;17.616;2023-02-08T07:31:56;10.27;;;3.67;;
56770;SDS011;42641;59.794;17.616;2023-02-08T07:34:24;6.60;;;3.37;;
56770;SDS011;42641;59.794;17.616;2023-02-08T07:36:50;6.67;;;3.63;;
56770;SDS011;42641;59.794;17.616;2023-02-08T07:39:17;8.23;;;4.27;;
56770;SDS011;42641;59.794;17.616;2023-02-08T07:41:43;6.80;;;3.23;;
56770;SDS011;42641;59.794;17.616;2023-02-08T07:44:09;8.07;;;3.57;;
56770;SDS011;42641;59.794;17.616;2023-02-08T07:46:36;9.90;;;3.70;;
56770;SDS011;42641;59.794;17.616;2023-02-08T07:49:02;6.20;;;3.57;;
56770;SDS011;42641;59.794;17.616;2023-02-08T07:51:29;11.73;;;4.10;;
56770;SDS011;42641;59.794;17.616;2023-02-08T07:53:55;6.20;;;3.50;;
56770;SDS011;42641;59.794;17.616;2023-02-08T07:56:21;11.37;;;3.77;;
56770;SDS011;42641;59.794;17.616;2023-02-08T07:58:48;9.80;;;3.50;;
56770;SDS011;42641;59.794;17.616;2023-02-08T08:01:14;7.17;;;3.60;;
56770;SDS011;42641;59.794;17.616;2023-02-08T08:03:41;8.40;;;3.67;;
56770;SDS011;42641;59.794;17.616;2023-02-08T08:06:07;10.63;;;3.57;;
56770;SDS011;42641;59.794;17.616;2023-02-08T08:08:33;11.43;;;4.00;;
56770;SDS011;42641;59.794;17.616;2023-02-08T08:11:00;6.10;;;3.60;;
56770;SDS011;42641;59.794;17.616;2023-02-08T08:13:26;5.43;;;3.30;;
56770;SDS011;42641;59.794;17.616;2023-02-08T08:15:52;6.33;;;2.93;;
56770;SDS011;42641;59.794;17.616;2023-02-08T08:18:19;8.27;;;3.43;;
56770;SDS011;42641;59.794;17.616;2023-02-08T08:20:45;8.13;;;3.63;;
56770;SDS011;42641;59.794;17.616;2023-02-08T08:23:11;7.77;;;4.00;;
56770;SDS011;42641;59.794;17.616;2023-02-08T08:25:38;6.83;;;3.50;;
56770;SDS011;42641;59.794;17.616;2023-02-08T08:28:04;7.73;;;3.80;;
56770;SDS011;42641;59.794;17.616;2023-02-08T08:30:31;7.70;;;3.17;;
56770;SDS011;42641;59.794;17.616;2023-02-08T08:32:57;8.83;;;3.67;;
56770;SDS011;42641;59.794;17.616;2023-02-08T08:35:24;8.83;;;3.03;;
56770;SDS011;42641;59.794;17.616;2023-02-08T08:37:50;6.33;;;3.07;;
56770;SDS011;42641;59.794;17.616;2023-02-08T08:40:16;7.90;;;3.53;;
56770;SDS011;42641;59.794;17.616;2023-02-08T08:42:43;9.03;;;3.63;;
56770;SDS011;42641;59.794;17.616;2023-02-08T08:45:09;10.20;;;3.77;;
56770;SDS011;42641;59.794;17.616;2023-02-08T08:47:36;7.77;;;3.50;;
56770;SDS011;42641;59.794;17.616;2023-02-08T08:50:02;9.80;;;4.13;;
56770;SDS011;42641;59.794;17.616;2023-02-08T08:52:28;11.80;;;3.90;;
56770;SDS011;42641;59.794;17.616;2023-02-08T08:54:55;13.70;;;3.67;;
56770;SDS011;42641;59.794;17.616;2023-02-08T08:57:21;12.47;;;3.83;;
56770;SDS011;42641;59.794;17.616;2023-02-08T08:59:47;10.57;;;3.90;;
56770;SDS011;42641;59.794;17.616;2023-02-08T09:02:14;7.73;;;3.70;;
56770;SDS011;42641;59.794;17.616;2023-02-08T09:04:40;11.63;;;4.17;;
56770;SDS011;42641;59.794;17.616;2023-02-08T09:07:07;8.00;;;3.90;;
56770;SDS011;42641;59.794;17.616;2023-02-08T09:09:35;9.53;;;3.63;;
56770;SDS011;42641;59.794;17.616;2023-02-08T09:12:02;10.20;;;3.70;;
56770;SDS011;42641;59.794;17.616;2023-02-08T09:14:29;8.73;;;3.67;;
56770;SDS011;42641;59.794;17.616;2023-02-08T09:16:55;9.77;;;3.50;;
56770;SDS011;42641;59.794;17.616;2023-02-08T09:19:21;10.20;;;4.10;;
56770;SDS011;42641;59.794;17.616;2023-02-08T09:21:48;8.60;;;3.90;;
56770;SDS011;42641;59.794;17.616;2023-02-08T09:24:15;9.80;;;3.80;;
56770;SDS011;42641;59.794;17.616;2023-02-08T09:26:41;9.73;;;4.00;;
56770;SDS011;42641;59.794;17.616;2023-02-08T09:29:10;8.30;;;3.37;;
56770;SDS011;42641;59.794;17.616;2023-02-08T09:31:36;11.67;;;3.63;;
56770;SDS011;42641;59.794;17.616;2023-02-08T09:34:03;14.43;;;4.00;;
56770;SDS011;42641;59.794;17.616;2023-02-08T09:36:34;10.70;;;4.57;;
56770;SDS011;42641;59.794;17.616;2023-02-08T09:39:16;7.87;;;3.87;;
56770;SDS011;42641;59.794;17.616;2023-02-08T09:47:05;8.60;;;3.93;;
56770;SDS011;42641;59.794;17.616;2023-02-08T09:53:10;10.27;;;4.20;;
56770;SDS011;42641;59.794;17.616;2023-02-08T09:58:02;5.30;;;2.90;;
56770;SDS011;42641;59.794;17.616;2023-02-08T10:00:34;9.07;;;3.23;;
56770;SDS011;42641;59.794;17.616;2023-02-08T10:03:05;9.57;;;3.67;;
56770;SDS011;42641;59.794;17.616;2023-02-08T10:05:46;7.63;;;3.73;;
56770;SDS011;42641;59.794;17.616;2023-02-08T10:08:13;7.07;;;3.67;;
56770;SDS011;42641;59.794;17.616;2023-02-08T10:10:46;6.93;;;3.50;;
56770;SDS011;42641;59.794;17.616;2023-02-08T10:20:03;7.20;;;3.17;;
56770;SDS011;42641;59.794;17.616;2023-02-08T10:25:01;6.87;;;3.17;;
56770;SDS011;42641;59.794;17.616;2023-02-08T10:33:26;5.23;;;2.70;;
56770;SDS011;42641;59.794;17.616;2023-02-08T10:35:56;6.20;;;2.73;;
56770;SDS011;42641;59.794;17.616;2023-02-08T10:38:24;9.13;;;2.97;;
56770;SDS011;42641;59.794;17.616;2023-02-08T10:41:00;5.97;;;3.03;;
56770;SDS011;42641;59.794;17.616;2023-02-08T10:43:31;7.03;;;2.90;;
56770;SDS011;42641;59.794;17.616;2023-02-08T10:51:35;4.17;;;2.90;;
56770;SDS011;42641;59.794;17.616;2023-02-08T10:54:01;5.57;;;2.70;;
56770;SDS011;42641;59.794;17.616;2023-02-08T10:58:57;5.57;;;3.00;;
56770;SDS011;42641;59.794;17.616;2023-02-08T11:01:29;6.90;;;3.23;;
56770;SDS011;42641;59.794;17.616;2023-02-08T11:04:03;6.73;;;3.03;;
56770;SDS011;42641;59.794;17.616;2023-02-08T11:06:30;5.40;;;2.70;;
56770;SDS011;42641;59.794;17.616;2023-02-08T11:08:57;6.17;;;3.10;;
56770;SDS011;42641;59.794;17.616;2023-02-08T11:11:24;6.03;;;3.20;;
56770;SDS011;42641;59.794;17.616;2023-02-08T11:14:04;7.83;;;3.37;;
56770;SDS011;42641;59.794;17.616;2023-02-08T11:16:33;5.87;;;3.30;;
56770;SDS011;42641;59.794;17.616;2023-02-08T11:19:00;7.57;;;2.83;;
56770;SDS011;42641;59.794;17.616;2023-02-08T11:21:31;7.47;;;2.93;;
56770;SDS011;42641;59.794;17.616;2023-02-08T11:26:52;5.13;;;2.40;;
56770;SDS011;42641;59.794;17.616;2023-02-08T11:29:22;4.20;;;2.40;;
56770;SDS011;42641;59.794;17.616;2023-02-08T11:34:24;7.27;;;2.77;;
56770;SDS011;42641;59.794;17.616;2023-02-08T11:36:58;6.07;;;2.50;;
56770;SDS011;42641;59.794;17.616;2023-02-08T11:39:32;3.10;;;2.07;;
56770;SDS011;42641;59.794;17.616;2023-02-08T11:42:04;6.13;;;2.73;;
56770;SDS011;42641;59.794;17.616;2023-02-08T11:44:35;5.30;;;2.57;;
56770;SDS011;42641;59.794;17.616;2023-02-08T11:47:07;6.10;;;2.37;;
56770;SDS011;42641;59.794;17.616;2023-02-08T11:49:42;6.30;;;2.40;;
56770;SDS011;42641;59.794;17.616;2023-02-08T11:52:21;4.63;;;2.50;;
56770;SDS011;42641;59.794;17.616;2023-02-08T11:54:48;5.43;;;2.10;;
56770;SDS011;42641;59.794;17.616;2023-02-08T11:59:47;6.10;;;2.20;;
56770;SDS011;42641;59.794;17.616;2023-02-08T12:04:53;6.47;;;2.63;;
56770;SDS011;42641;59.794;17.616;2023-02-08T12:15:32;7.50;;;2.60;;
56770;SDS011;42641;59.794;17.616;2023-02-08T12:21:03;5.47;;;2.20;;
56770;SDS011;42641;59.794;17.616;2023-02-08T12:23:38;7.40;;;2.70;;
56770;SDS011;42641;59.794;17.616;2023-02-08T12:34:21;5.17;;;2.17;;
56770;SDS011;42641;59.794;17.616;2023-02-08T12:53:54;8.77;;;2.37;;
56770;SDS011;42641;59.794;17.616;2023-02-08T12:56:25;5.30;;;2.00;;
56770;SDS011;42641;59.794;17.616;2023-02-08T12:58:59;5.30;;;2.50;;
56770;SDS011;42641;59.794;17.616;2023-02-08T13:01:43;6.80;;;2.53;;
56770;SDS011;42641;59.794;17.616;2023-02-08T13:06:51;5.03;;;2.23;;
56770;SDS011;42641;59.794;17.616;2023-02-08T13:12:03;5.50;;;2.20;;
56770;SDS011;42641;59.794;17.616;2023-02-08T13:15:01;9.83;;;1.97;;
56770;SDS011;42641;59.794;17.616;2023-02-08T13:17:46;3.93;;;1.93;;
56770;SDS011;42641;59.794;17.616;2023-02-08T13:20:45;5.07;;;2.20;;
56770;SDS011;42641;59.794;17.616;2023-02-08T13:23:23;5.23;;;2.30;;
56770;SDS011;42641;59.794;17.616;2023-02-08T13:25:57;9.33;;;2.83;;
56770;SDS011;42641;59.794;17.616;2023-02-08T13:28:26;6.53;;;2.17;;
56770;SDS011;42641;59.794;17.616;2023-02-08T13:42:01;5.40;;;2.27;;
56770;SDS011;42641;59.794;17.616;2023-02-08T13:44:38;5.87;;;2.37;;
56770;SDS011;42641;59.794;17.616;2023-02-08T13:47:05;9.60;;;1.83;;
56770;SDS011;42641;59.794;17.616;2023-02-08T13:49:51;4.57;;;1.73;;
56770;SDS011;42641;59.794;17.616;2023-02-08T13:58:02;2.57;;;1.70;;
56770;SDS011;42641;59.794;17.616;2023-02-08T14:03:23;6.27;;;1.70;;
56770;SDS011;42641;59.794;17.616;2023-02-08T14:08:48;6.37;;;2.27;;
56770;SDS011;42641;59.794;17.616;2023-02-08T14:13:58;4.07;;;1.70;;
56770;SDS011;42641;59.794;17.616;2023-02-08T14:16:34;5.73;;;1.90;;
56770;SDS011;42641;59.794;17.616;2023-02-08T14:19:04;4.13;;;1.70;;
56770;SDS011;42641;59.794;17.616;2023-02-08T14:21:47;2.83;;;1.70;;
56770;SDS011;42641;59.794;17.616;2023-02-08T14:24:31;4.80;;;1.80;;
56770;SDS011;42641;59.794;17.616;2023-02-08T14:32:29;4.33;;;1.80;;
56770;SDS011;42641;59.794;17.616;2023-02-08T14:35:03;3.80;;;1.80;;
56770;SDS011;42641;59.794;17.616;2023-02-08T14:37:33;4.90;;;2.17;;
56770;SDS011;42641;59.794;17.616;2023-02-08T14:43:01;4.77;;;2.10;;
56770;SDS011;42641;59.794;17.616;2023-02-08T14:45:52;3.60;;;2.10;;
56770;SDS011;42641;59.794;17.616;2023-02-08T14:56:32;4.87;;;2.37;;
56770;SDS011;42641;59.794;17.616;2023-02-08T14:59:11;4.13;;;2.90;;
56770;SDS011;42641;59.794;17.616;2023-02-08T15:01:54;6.03;;;2.30;;
56770;SDS011;42641;59.794;17.616;2023-02-08T15:04:26;4.30;;;2.50;;
56770;SDS011;42641;59.794;17.616;2023-02-08T15:07:01;6.57;;;2.90;;
56770;SDS011;42641;59.794;17.616;2023-02-08T15:09:50;4.83;;;2.60;;
56770;SDS011;42641;59.794;17.616;2023-02-08T15:14:49;4.20;;;2.70;;
56770;SDS011;42641;59.794;17.616;2023-02-08T15:20:17;5.43;;;3.13;;
56770;SDS011;42641;59.794;17.616;2023-02-08T15:22:45;6.33;;;3.07;;
56770;SDS011;42641;59.794;17.616;2023-02-08T15:25:15;4.47;;;2.80;;
56770;SDS011;42641;59.794;17.616;2023-02-08T15:27:49;4.20;;;3.00;;
56770;SDS011;42641;59.794;17.616;2023-02-08T15:30:41;4.73;;;3.03;;
56770;SDS011;42641;59.794;17.616;2023-02-08T15:33:08;7.43;;;3.13;;
56770;SDS011;42641;59.794;17.616;2023-02-08T15:35:39;5.20;;;3.20;;
56770;SDS011;42641;59.794;17.616;2023-02-08T15:38:13;5.10;;;3.00;;
56770;SDS011;42641;59.794;17.616;2023-02-08T15:40:42;5.60;;;2.97;;
56770;SDS011;42641;59.794;17.616;2023-02-08T15:45:36;5.73;;;3.30;;
56770;SDS011;42641;59.794;17.616;2023-02-08T15:48:06;4.00;;;3.30;;
56770;SDS011;42641;59.794;17.616;2023-02-08T15:50:33;7.47;;;3.40;;
56770;SDS011;42641;59.794;17.616;2023-02-08T15:53:00;5.97;;;3.30;;
56770;SDS011;42641;59.794;17.616;2023-02-08T15:55:34;4.17;;;3.00;;
56770;SDS011;42641;59.794;17.616;2023-02-08T15:58:37;6.17;;;3.20;;
56770;SDS011;42641;59.794;17.616;2023-02-08T16:01:06;4.13;;;2.80;;
56770;SDS011;42641;59.794;17.616;2023-02-08T16:03:33;5.83;;;2.93;;
56770;SDS011;42641;59.794;17.616;2023-02-08T16:06:02;5.50;;;3.03;;
56770;SDS011;42641;59.794;17.616;2023-02-08T16:08:32;4.63;;;2.87;;
56770;SDS011;42641;59.794;17.616;2023-02-08T16:11:02;4.87;;;3.43;;
56770;SDS011;42641;59.794;17.616;2023-02-08T16:13:40;5.70;;;2.83;;
56770;SDS011;42641;59.794;17.616;2023-02-08T16:16:22;3.20;;;2.73;;
56770;SDS011;42641;59.794;17.616;2023-02-08T16:22:22;5.27;;;3.10;;
56770;SDS011;42641;59.794;17.616;2023-02-08T16:24:47;5.80;;;3.30;;
56770;SDS011;42641;59.794;17.616;2023-02-08T16:27:19;7.23;;;3.20;;
56770;SDS011;42641;59.794;17.616;2023-02-08T16:29:50;3.93;;;3.10;;
56770;SDS011;42641;59.794;17.616;2023-02-08T16:34:55;4.77;;;3.37;;
56770;SDS011;42641;59.794;17.616;2023-02-08T16:37:24;3.97;;;3.10;;
56770;SDS011;42641;59.794;17.616;2023-02-08T16:42:28;4.93;;;3.23;;
56770;SDS011;42641;59.794;17.616;2023-02-08T16:47:36;4.63;;;3.13;;
56770;SDS011;42641;59.794;17.616;2023-02-08T16:50:05;4.97;;;3.20;;
56770;SDS011;42641;59.794;17.616;2023-02-08T16:52:33;5.90;;;3.63;;
56770;SDS011;42641;59.794;17.616;2023-02-08T16:54:59;6.10;;;3.23;;
56770;SDS011;42641;59.794;17.616;2023-02-08T16:57:43;4.83;;;3.33;;
56770;SDS011;42641;59.794;17.616;2023-02-08T17:00:12;5.20;;;3.50;;
56770;SDS011;42641;59.794;17.616;2023-02-08T17:02:44;5.83;;;3.70;;
56770;SDS011;42641;59.794;17.616;2023-02-08T17:05:10;5.43;;;3.23;;
56770;SDS011;42641;59.794;17.616;2023-02-08T17:07:37;4.70;;;3.30;;
56770;SDS011;42641;59.794;17.616;2023-02-08T17:10:04;5.27;;;3.47;;
56770;SDS011;42641;59.794;17.616;2023-02-08T17:12:32;5.33;;;3.90;;
56770;SDS011;42641;59.794;17.616;2023-02-08T17:15:01;7.00;;;3.87;;
56770;SDS011;42641;59.794;17.616;2023-02-08T17:17:28;5.60;;;3.90;;
56770;SDS011;42641;59.794;17.616;2023-02-08T17:19:54;4.37;;;3.43;;
56770;SDS011;42641;59.794;17.616;2023-02-08T17:22:21;4.47;;;3.40;;
56770;SDS011;42641;59.794;17.616;2023-02-08T17:24:47;4.93;;;3.33;;
56770;SDS011;42641;59.794;17.616;2023-02-08T17:27:13;4.07;;;3.50;;
56770;SDS011;42641;59.794;17.616;2023-02-08T17:29:43;3.70;;;3.10;;
56770;SDS011;42641;59.794;17.616;2023-02-08T17:32:09;5.30;;;3.60;;
56770;SDS011;42641;59.794;17.616;2023-02-08T17:34:36;4.80;;;3.63;;
56770;SDS011;42641;59.794;17.616;2023-02-08T17:37:04;4.97;;;3.30;;
56770;SDS011;42641;59.794;17.616;2023-02-08T17:39:31;4.80;;;3.77;;
56770;SDS011;42641;59.794;17.616;2023-02-08T17:41:57;4.83;;;4.23;;